Newton, NH (03858)

12:26 PM EST on December 26, 2014 (GMT -0500)
Newton Junction, NH | Change Station
CLOSE
Current Station
Personal Weather Station
Location: Newton, NH
Elevation: 164 ft
Nearby Weather Stations

Elev 164 ft 42.86 °N, 71.06 °W | Updated 10 minutes ago

Partly Cloudy
Partly Cloudy
49.3 °F
Feels Like 49 °F
N
2.7
Wind Variable Wind from WNW

Today
High -- | Low -- °F
--% Chance of Precip.
Yesterday
High -- | Low -- °F
Precip. -- in
7:13 AM 4:15 PM
Waxing Crescent, 27% visible
Pressure 30.13 in
Visibility 10.0 miles
Clouds Few 4000 ft
Windchill 49 °F
Dew Point 35 °F
Humidity 58%
Rainfall 0.00 in
Snow Depth Not available.
UV 2 out of 12
Pollen .10 out of 12
Air Quality Not available.
Flu Activity Not available.
METAR KLWM 261654Z 28012KT 10SM FEW040 08/M01 A3012 RMK AO2 SLP201 T00831006

More Conditions Fewer Conditions

Pressure 30.13 in
Visibility 10.0 miles
Clouds Few 4000 ft
Windchill 49 °F
Dew Point 35 °F
Humidity 58%
Rainfall 0.00 in
Snow Depth Not available.
UV 2 out of 12
Pollen .10 out of 12
Air Quality Not available.
Flu Activity Not available.
METAR KLWM 261654Z 28012KT 10SM FEW040 08/M01 A3012 RMK AO2 SLP201 T00831006

More Conditions Fewer Conditions

10-Day Weather Forecast

Almanac

Astronomy

Dec. 26, 2014 Rise Set
Actual Time
Civil Twilight
Nautical Twilight
Astronomical Twilight
Moon
Length of Visible Light
Length of Day
Tomorrow will be .
, % of the Moon is Illuminated

Today's Extremes

State Highs State Lows

Community

WunderPhotos

Upload Photos

1,780,645 photos uploaded!

WunderBlogs® & News

Nearby

Air Quality

  Air Quality AQ Index Pollutant
Not available.

Snow Depth

Station Depth Elevation

Earthquake Activity

City Distance Mag. Time & Date
Minimum magnitude displayed is 2.5.

Coastal Water Temperatures

Place Temperature

Nearby Weather Stations